DAL4178 KIAH-KATL
Flight info
| Callsign | DAL4178 |
|---|---|
| Flight time | 1h 26m |
| Altitude | 39000 |
| Route | GUMBY3 LCH Q24 PAYTN SHYRE HOBTT3 |
| Aircraft | A339/H-SADE1E2E3GHIJ3J5M1P2RWXY/LB2D1 |
Departure
| Time | 2026-05-06 23:36 |
|---|---|
| Airport | George Bush Intercontinental Airport (KIAH) |
Arrival
| Time | 2026-05-07 01:02 |
|---|---|
| Airport | Hartsfield Jackson Atlanta International Airport (KATL) |
| Time | Latitude | Longitude | Altitude | Speed | Heading |
|---|---|---|---|---|---|
| 2026-05-06 23:10 | 29.98829 | -95.33546 | 113 ft | 0 kts | 180° |
| 2026-05-06 23:25 | 29.98834 | -95.33547 | 113 ft | 4 kts | 181° |
| 2026-05-06 23:25 | 29.98860 | -95.33545 | 109 ft | 4 kts | 196° |
| 2026-05-06 23:26 | 29.98885 | -95.33535 | 112 ft | 4 kts | 213° |
| 2026-05-06 23:26 | 29.98906 | -95.33518 | 109 ft | 4 kts | 235° |
| 2026-05-06 23:26 | 29.98919 | -95.33495 | 109 ft | 4 kts | 266° |
| 2026-05-06 23:26 | 29.98920 | -95.33468 | 113 ft | 4 kts | 270° |
| 2026-05-06 23:27 | 29.98920 | -95.33452 | 113 ft | 0 kts | 270° |
| 2026-05-06 23:29 | 29.98920 | -95.33453 | 113 ft | 0 kts | 270° |
| 2026-05-06 23:29 | 29.98920 | -95.33484 | 112 ft | 10 kts | 270° |
| 2026-05-06 23:29 | 29.98928 | -95.33613 | 113 ft | 18 kts | 293° |
| 2026-05-06 23:29 | 29.99042 | -95.33648 | 111 ft | 17 kts | 353° |
| 2026-05-06 23:30 | 29.99089 | -95.33755 | 109 ft | 16 kts | 272° |
| 2026-05-06 23:30 | 29.99090 | -95.33897 | 109 ft | 20 kts | 270° |
| 2026-05-06 23:30 | 29.99089 | -95.34078 | 110 ft | 24 kts | 270° |
| 2026-05-06 23:30 | 29.99085 | -95.34267 | 110 ft | 24 kts | 269° |
| 2026-05-06 23:31 | 29.99086 | -95.34456 | 110 ft | 24 kts | 269° |
| 2026-05-06 23:31 | 29.99085 | -95.34646 | 110 ft | 24 kts | 270° |
| 2026-05-06 23:31 | 29.99086 | -95.34836 | 110 ft | 24 kts | 270° |
| 2026-05-06 23:31 | 29.99089 | -95.35024 | 109 ft | 24 kts | 273° |
| 2026-05-06 23:32 | 29.99093 | -95.35215 | 113 ft | 24 kts | 269° |
| 2026-05-06 23:32 | 29.99090 | -95.35378 | 109 ft | 14 kts | 270° |
| 2026-05-06 23:32 | 29.99054 | -95.35475 | 110 ft | 13 kts | 210° |
| 2026-05-06 23:32 | 29.98964 | -95.35484 | 112 ft | 13 kts | 180° |
| 2026-05-06 23:33 | 29.98868 | -95.35487 | 110 ft | 14 kts | 187° |
| 2026-05-06 23:33 | 29.98800 | -95.35560 | 110 ft | 14 kts | 237° |
| 2026-05-06 23:33 | 29.98753 | -95.35663 | 109 ft | 15 kts | 242° |
| 2026-05-06 23:33 | 29.98679 | -95.35713 | 112 ft | 12 kts | 174° |
| 2026-05-06 23:34 | 29.98635 | -95.35694 | 113 ft | 0 kts | 154° |
| 2026-05-06 23:34 | 29.98624 | -95.35688 | 111 ft | 0 kts | 154° |
| 2026-05-06 23:35 | 29.98620 | -95.35685 | 113 ft | 1 kts | 154° |
| 2026-05-06 23:35 | 29.98477 | -95.35596 | 112 ft | 65 kts | 152° |
| 2026-05-06 23:35 | 29.97812 | -95.35190 | 114 ft | 147 kts | 152° |
| 2026-05-06 23:35 | 29.96733 | -95.34512 | 168 ft | 201 kts | 150° |
| 2026-05-06 23:36 | 29.95498 | -95.33571 | 504 ft | 225 kts | 141° |
| 2026-05-06 23:36 | 29.94585 | -95.32045 | 1047 ft | 239 kts | 111° |
| 2026-05-06 23:36 | 29.94276 | -95.30151 | 1839 ft | 241 kts | 97° |
| 2026-05-06 23:36 | 29.94145 | -95.28179 | 2436 ft | 250 kts | 96° |
| 2026-05-06 23:37 | 29.93939 | -95.26192 | 3200 ft | 251 kts | 101° |
| 2026-05-06 23:37 | 29.93707 | -95.24175 | 3692 ft | 257 kts | 94° |
| 2026-05-06 23:37 | 29.93735 | -95.22087 | 3855 ft | 269 kts | 88° |
| 2026-05-06 23:37 | 29.93808 | -95.19867 | 3894 ft | 280 kts | 89° |
| 2026-05-06 23:38 | 29.93854 | -95.17623 | 3897 ft | 280 kts | 90° |
| 2026-05-06 23:38 | 29.93883 | -95.15383 | 3893 ft | 279 kts | 90° |
| 2026-05-06 23:38 | 29.93900 | -95.13136 | 3909 ft | 280 kts | 90° |
| 2026-05-06 23:38 | 29.93928 | -95.10892 | 4179 ft | 280 kts | 90° |
| 2026-05-06 23:39 | 29.93959 | -95.08637 | 4820 ft | 283 kts | 90° |
| 2026-05-06 23:39 | 29.94074 | -95.06394 | 5737 ft | 276 kts | 85° |
| 2026-05-06 23:39 | 29.94248 | -95.04210 | 6668 ft | 272 kts | 86° |
| 2026-05-06 23:39 | 29.94399 | -95.02028 | 7467 ft | 272 kts | 86° |
| 2026-05-06 23:40 | 29.94560 | -94.99863 | 8194 ft | 270 kts | 86° |
| 2026-05-06 23:40 | 29.94725 | -94.97721 | 8919 ft | 268 kts | 86° |
| 2026-05-06 23:40 | 29.94890 | -94.95570 | 9548 ft | 271 kts | 86° |
| 2026-05-06 23:40 | 29.95061 | -94.93380 | 10016 ft | 278 kts | 86° |
| 2026-05-06 23:41 | 29.95230 | -94.91128 | 10410 ft | 288 kts | 87° |
| 2026-05-06 23:41 | 29.95400 | -94.88750 | 10575 ft | 307 kts | 87° |
| 2026-05-06 23:41 | 29.95584 | -94.86226 | 10738 ft | 326 kts | 87° |
| 2026-05-06 23:41 | 29.95779 | -94.83553 | 10892 ft | 343 kts | 87° |
| 2026-05-06 23:42 | 29.95982 | -94.80736 | 11057 ft | 360 kts | 87° |
| 2026-05-06 23:42 | 29.96196 | -94.77798 | 11207 ft | 375 kts | 87° |
| 2026-05-06 23:42 | 29.96419 | -94.74780 | 11611 ft | 381 kts | 87° |
| 2026-05-06 23:42 | 29.96649 | -94.71722 | 12070 ft | 385 kts | 87° |
| 2026-05-06 23:43 | 29.96879 | -94.68628 | 12535 ft | 389 kts | 87° |
| 2026-05-06 23:43 | 29.97106 | -94.65498 | 12998 ft | 393 kts | 88° |
| 2026-05-06 23:43 | 29.97336 | -94.62341 | 13427 ft | 398 kts | 88° |
| 2026-05-06 23:43 | 29.97567 | -94.59151 | 13873 ft | 401 kts | 88° |
| 2026-05-06 23:44 | 29.97802 | -94.55929 | 14304 ft | 405 kts | 88° |
| 2026-05-06 23:44 | 29.98038 | -94.52682 | 14742 ft | 408 kts | 88° |
| 2026-05-06 23:44 | 29.98274 | -94.49406 | 15147 ft | 412 kts | 88° |
| 2026-05-06 23:44 | 29.98511 | -94.46096 | 15571 ft | 415 kts | 88° |
| 2026-05-06 23:45 | 29.98748 | -94.42763 | 16003 ft | 419 kts | 88° |
| 2026-05-06 23:45 | 29.98986 | -94.39404 | 16443 ft | 422 kts | 88° |
| 2026-05-06 23:45 | 29.99226 | -94.36012 | 16843 ft | 426 kts | 88° |
| 2026-05-06 23:45 | 29.99465 | -94.32596 | 17252 ft | 429 kts | 88° |
| 2026-05-06 23:46 | 29.99709 | -94.29151 | 17670 ft | 433 kts | 87° |
| 2026-05-06 23:46 | 30.00077 | -94.25680 | 18081 ft | 438 kts | 84° |
| 2026-05-06 23:46 | 30.00531 | -94.22194 | 18471 ft | 441 kts | 83° |
| 2026-05-06 23:46 | 30.00997 | -94.18692 | 18853 ft | 443 kts | 83° |
| 2026-05-06 23:47 | 30.01449 | -94.15166 | 19251 ft | 446 kts | 84° |
| 2026-05-06 23:47 | 30.01882 | -94.11658 | 19642 ft | 449 kts | 84° |
| 2026-05-06 23:47 | 30.02317 | -94.08079 | 20023 ft | 452 kts | 84° |
| 2026-05-06 23:47 | 30.02751 | -94.04476 | 20430 ft | 455 kts | 84° |
| 2026-05-06 23:48 | 30.03185 | -94.00842 | 20826 ft | 458 kts | 84° |
| 2026-05-06 23:48 | 30.03634 | -93.97197 | 21235 ft | 461 kts | 84° |
| 2026-05-06 23:48 | 30.04096 | -93.93512 | 21647 ft | 464 kts | 84° |
| 2026-05-06 23:48 | 30.04561 | -93.89816 | 22091 ft | 467 kts | 84° |
| 2026-05-06 23:49 | 30.05027 | -93.86088 | 22504 ft | 471 kts | 84° |
| 2026-05-06 23:49 | 30.05492 | -93.82340 | 22913 ft | 474 kts | 84° |
| 2026-05-06 23:49 | 30.05958 | -93.78561 | 23346 ft | 477 kts | 84° |
| 2026-05-06 23:49 | 30.06431 | -93.74744 | 23595 ft | 484 kts | 84° |
| 2026-05-06 23:50 | 30.06902 | -93.70891 | 23967 ft | 486 kts | 84° |
| 2026-05-06 23:50 | 30.07852 | -93.63115 | 24677 ft | 492 kts | 84° |
| 2026-05-06 23:50 | 30.08330 | -93.59193 | 25025 ft | 495 kts | 84° |
| 2026-05-06 23:51 | 30.08809 | -93.55239 | 25344 ft | 499 kts | 84° |
| 2026-05-06 23:51 | 30.09289 | -93.51265 | 25694 ft | 502 kts | 84° |
| 2026-05-06 23:51 | 30.09773 | -93.47267 | 26032 ft | 505 kts | 84° |
| 2026-05-06 23:51 | 30.10259 | -93.43237 | 26355 ft | 508 kts | 84° |
| 2026-05-06 23:52 | 30.10747 | -93.39190 | 26667 ft | 511 kts | 84° |
| 2026-05-06 23:52 | 30.11236 | -93.35108 | 26989 ft | 514 kts | 84° |
| 2026-05-06 23:52 | 30.11728 | -93.31002 | 27308 ft | 517 kts | 84° |
| 2026-05-06 23:52 | 30.12222 | -93.26877 | 27606 ft | 520 kts | 84° |
| 2026-05-06 23:53 | 30.12714 | -93.22730 | 27923 ft | 523 kts | 84° |
| 2026-05-06 23:53 | 30.13209 | -93.18554 | 28229 ft | 526 kts | 84° |
| 2026-05-06 23:53 | 30.13704 | -93.14362 | 28526 ft | 529 kts | 84° |
| 2026-05-06 23:53 | 30.14232 | -93.10142 | 28811 ft | 532 kts | 80° |
| 2026-05-06 23:54 | 30.15038 | -93.05952 | 29099 ft | 535 kts | 77° |
| 2026-05-06 23:54 | 30.15874 | -93.01760 | 29485 ft | 536 kts | 77° |
| 2026-05-06 23:54 | 30.16708 | -92.97556 | 29753 ft | 539 kts | 77° |
| 2026-05-06 23:54 | 30.17544 | -92.93317 | 30037 ft | 542 kts | 77° |
| 2026-05-06 23:55 | 30.18379 | -92.89059 | 30316 ft | 544 kts | 77° |
| 2026-05-06 23:55 | 30.19210 | -92.84793 | 30617 ft | 546 kts | 77° |
| 2026-05-06 23:55 | 30.20043 | -92.80504 | 30906 ft | 548 kts | 77° |
| 2026-05-06 23:55 | 30.20878 | -92.76199 | 31209 ft | 550 kts | 77° |
| 2026-05-06 23:56 | 30.21716 | -92.71878 | 31497 ft | 552 kts | 77° |
| 2026-05-06 23:56 | 30.22555 | -92.67543 | 31778 ft | 554 kts | 77° |
| 2026-05-06 23:56 | 30.23396 | -92.63191 | 32033 ft | 556 kts | 77° |
| 2026-05-06 23:56 | 30.24228 | -92.58877 | 32305 ft | 557 kts | 77° |
| 2026-05-06 23:57 | 30.25083 | -92.54444 | 32538 ft | 559 kts | 76° |
| 2026-05-06 23:57 | 30.25930 | -92.50050 | 32765 ft | 561 kts | 76° |
| 2026-05-06 23:57 | 30.26778 | -92.45639 | 32939 ft | 562 kts | 76° |
| 2026-05-06 23:57 | 30.27625 | -92.41225 | 33123 ft | 563 kts | 76° |
| 2026-05-06 23:58 | 30.28473 | -92.36789 | 33267 ft | 564 kts | 76° |
| 2026-05-06 23:58 | 30.29320 | -92.32353 | 33417 ft | 565 kts | 76° |
| 2026-05-06 23:58 | 30.30164 | -92.27918 | 33582 ft | 565 kts | 76° |
| 2026-05-06 23:58 | 30.30996 | -92.23541 | 33816 ft | 563 kts | 76° |
| 2026-05-06 23:59 | 30.31847 | -92.19057 | 33976 ft | 563 kts | 76° |
| 2026-05-06 23:59 | 30.32684 | -92.14635 | 34131 ft | 563 kts | 76° |
| 2026-05-06 23:59 | 30.33509 | -92.10277 | 34293 ft | 562 kts | 77° |
| 2026-05-06 23:59 | 30.34343 | -92.05854 | 34450 ft | 562 kts | 77° |
| 2026-05-07 00:00 | 30.35174 | -92.01444 | 34589 ft | 561 kts | 77° |
| 2026-05-07 00:00 | 30.36005 | -91.97021 | 34742 ft | 561 kts | 77° |
| 2026-05-07 00:00 | 30.36834 | -91.92605 | 34887 ft | 561 kts | 77° |
| 2026-05-07 00:00 | 30.37392 | -91.89629 | 35003 ft | 560 kts | 77° |
| 2026-05-07 00:01 | 30.38481 | -91.83801 | 35288 ft | 558 kts | 77° |
| 2026-05-07 00:01 | 30.39300 | -91.79419 | 35540 ft | 556 kts | 77° |
| 2026-05-07 00:01 | 30.40116 | -91.75042 | 35732 ft | 555 kts | 77° |
| 2026-05-07 00:01 | 30.40925 | -91.70682 | 35887 ft | 555 kts | 77° |
| 2026-05-07 00:02 | 30.41736 | -91.66305 | 36058 ft | 554 kts | 77° |
| 2026-05-07 00:02 | 30.42542 | -91.61941 | 36220 ft | 554 kts | 77° |
| 2026-05-07 00:02 | 30.43347 | -91.57584 | 36390 ft | 554 kts | 77° |
| 2026-05-07 00:02 | 30.44153 | -91.53217 | 36550 ft | 553 kts | 77° |
| 2026-05-07 00:03 | 30.44953 | -91.48862 | 36721 ft | 552 kts | 77° |
| 2026-05-07 00:03 | 30.45752 | -91.44513 | 36899 ft | 552 kts | 77° |
| 2026-05-07 00:03 | 30.46549 | -91.40170 | 37067 ft | 551 kts | 76° |
| 2026-05-07 00:03 | 30.47354 | -91.35820 | 37229 ft | 551 kts | 77° |
| 2026-05-07 00:04 | 30.48148 | -91.31487 | 37395 ft | 551 kts | 77° |
| 2026-05-07 00:04 | 30.48951 | -91.27147 | 37562 ft | 550 kts | 75° |
| 2026-05-07 00:04 | 30.49910 | -91.22858 | 37700 ft | 549 kts | 73° |
| 2026-05-07 00:04 | 30.50601 | -91.19981 | 37828 ft | 549 kts | 72° |
| 2026-05-07 00:05 | 30.51628 | -91.15713 | 38021 ft | 548 kts | 73° |
| 2026-05-07 00:05 | 30.52635 | -91.11457 | 38173 ft | 548 kts | 73° |
| 2026-05-07 00:05 | 30.53622 | -91.07187 | 38308 ft | 548 kts | 73° |
| 2026-05-07 00:05 | 30.54585 | -91.02964 | 38461 ft | 548 kts | 73° |
| 2026-05-07 00:06 | 30.55571 | -90.98642 | 38594 ft | 548 kts | 73° |
| 2026-05-07 00:06 | 30.56544 | -90.94374 | 38723 ft | 547 kts | 73° |
| 2026-05-07 00:06 | 30.57517 | -90.90101 | 38862 ft | 547 kts | 73° |
| 2026-05-07 00:06 | 30.58473 | -90.85895 | 38913 ft | 546 kts | 73° |
| 2026-05-07 00:07 | 30.60388 | -90.77371 | 38919 ft | 546 kts | 74° |
| 2026-05-07 00:07 | 30.62318 | -90.68819 | 38933 ft | 550 kts | 73° |
| 2026-05-07 00:08 | 30.64276 | -90.60203 | 38917 ft | 553 kts | 73° |
| 2026-05-07 00:08 | 30.66219 | -90.51547 | 38914 ft | 555 kts | 73° |
| 2026-05-07 00:09 | 30.68160 | -90.42862 | 38920 ft | 556 kts | 73° |
| 2026-05-07 00:09 | 30.70098 | -90.34162 | 38921 ft | 557 kts | 73° |
| 2026-05-07 00:10 | 30.72033 | -90.25450 | 38925 ft | 557 kts | 74° |
| 2026-05-07 00:10 | 30.73963 | -90.16727 | 38928 ft | 557 kts | 74° |
| 2026-05-07 00:11 | 30.75889 | -90.07989 | 38933 ft | 558 kts | 74° |
| 2026-05-07 00:11 | 30.77808 | -89.99247 | 38903 ft | 559 kts | 74° |
| 2026-05-07 00:12 | 30.79723 | -89.90499 | 38917 ft | 558 kts | 74° |
| 2026-05-07 00:12 | 30.81632 | -89.81764 | 38917 ft | 557 kts | 74° |
| 2026-05-07 00:13 | 30.83524 | -89.73033 | 38921 ft | 555 kts | 74° |
| 2026-05-07 00:13 | 30.85374 | -89.64356 | 38941 ft | 552 kts | 74° |
| 2026-05-07 00:14 | 30.87261 | -89.55699 | 38947 ft | 553 kts | 74° |
| 2026-05-07 00:14 | 30.89146 | -89.47028 | 38956 ft | 551 kts | 74° |
| 2026-05-07 00:15 | 30.90969 | -89.38377 | 38942 ft | 552 kts | 76° |
| 2026-05-07 00:15 | 30.92804 | -89.29698 | 38943 ft | 554 kts | 72° |
| 2026-05-07 00:16 | 30.94697 | -89.21041 | 38941 ft | 555 kts | 73° |
| 2026-05-07 00:16 | 30.96590 | -89.12345 | 38945 ft | 555 kts | 74° |
| 2026-05-07 00:17 | 30.98412 | -89.03644 | 38955 ft | 552 kts | 75° |
| 2026-05-07 00:17 | 31.00382 | -88.95064 | 38951 ft | 545 kts | 68° |
| 2026-05-07 00:18 | 31.03482 | -88.87012 | 38960 ft | 543 kts | 58° |
| 2026-05-07 00:18 | 31.06978 | -88.79192 | 38950 ft | 545 kts | 60° |
| 2026-05-07 00:19 | 31.10458 | -88.71333 | 38959 ft | 545 kts | 59° |
| 2026-05-07 00:19 | 31.13943 | -88.63497 | 38962 ft | 546 kts | 59° |
| 2026-05-07 00:20 | 31.17412 | -88.55633 | 38970 ft | 545 kts | 59° |
| 2026-05-07 00:20 | 31.20898 | -88.47768 | 38968 ft | 545 kts | 59° |
| 2026-05-07 00:21 | 31.24345 | -88.39935 | 38981 ft | 546 kts | 60° |
| 2026-05-07 00:21 | 31.27851 | -88.31990 | 38977 ft | 547 kts | 59° |
| 2026-05-07 00:22 | 31.31334 | -88.24084 | 38989 ft | 547 kts | 59° |
| 2026-05-07 00:22 | 31.34771 | -88.16132 | 38986 ft | 547 kts | 60° |
| 2026-05-07 00:23 | 31.38226 | -88.08204 | 39000 ft | 547 kts | 59° |
| 2026-05-07 00:23 | 31.41704 | -88.00268 | 38976 ft | 549 kts | 59° |
| 2026-05-07 00:24 | 31.45170 | -87.92286 | 38972 ft | 549 kts | 60° |
| 2026-05-07 00:24 | 31.49080 | -87.84783 | 38972 ft | 541 kts | 49° |
| 2026-05-07 00:25 | 31.53479 | -87.77610 | 38965 ft | 543 kts | 50° |
| 2026-05-07 00:25 | 31.57912 | -87.70410 | 38979 ft | 545 kts | 49° |
| 2026-05-07 00:26 | 31.62366 | -87.63207 | 38959 ft | 544 kts | 49° |
| 2026-05-07 00:26 | 31.66814 | -87.56013 | 38960 ft | 545 kts | 49° |
| 2026-05-07 00:27 | 31.71260 | -87.48787 | 38962 ft | 546 kts | 49° |
| 2026-05-07 00:27 | 31.75697 | -87.41539 | 38958 ft | 546 kts | 49° |
| 2026-05-07 00:28 | 31.80127 | -87.34303 | 38964 ft | 546 kts | 50° |
| 2026-05-07 00:28 | 31.84555 | -87.27020 | 38772 ft | 548 kts | 50° |
| 2026-05-07 00:29 | 31.86771 | -87.23361 | 38566 ft | 550 kts | 50° |
| 2026-05-07 00:29 | 31.88996 | -87.19700 | 38313 ft | 550 kts | 50° |
| 2026-05-07 00:30 | 31.95708 | -87.08745 | 37525 ft | 551 kts | 50° |
| 2026-05-07 00:30 | 31.97942 | -87.05078 | 37274 ft | 551 kts | 50° |
| 2026-05-07 00:30 | 32.00173 | -87.01405 | 37007 ft | 552 kts | 50° |
| 2026-05-07 00:30 | 32.02407 | -86.97735 | 36768 ft | 549 kts | 49° |
| 2026-05-07 00:31 | 32.04646 | -86.94073 | 36561 ft | 552 kts | 51° |
| 2026-05-07 00:31 | 32.06867 | -86.90374 | 36353 ft | 551 kts | 50° |
| 2026-05-07 00:31 | 32.09090 | -86.86686 | 36137 ft | 554 kts | 51° |
| 2026-05-07 00:31 | 32.11294 | -86.82973 | 35940 ft | 553 kts | 50° |
| 2026-05-07 00:32 | 32.13523 | -86.79286 | 35723 ft | 554 kts | 51° |
| 2026-05-07 00:32 | 32.15759 | -86.75600 | 35528 ft | 553 kts | 50° |
| 2026-05-07 00:32 | 32.17980 | -86.71899 | 35359 ft | 552 kts | 51° |
| 2026-05-07 00:32 | 32.20199 | -86.68195 | 35140 ft | 553 kts | 50° |
| 2026-05-07 00:33 | 32.22431 | -86.64504 | 34921 ft | 553 kts | 50° |
| 2026-05-07 00:33 | 32.24662 | -86.60799 | 34687 ft | 554 kts | 51° |
| 2026-05-07 00:33 | 32.26893 | -86.57083 | 34451 ft | 555 kts | 51° |
| 2026-05-07 00:33 | 32.29091 | -86.53412 | 34247 ft | 554 kts | 51° |
| 2026-05-07 00:34 | 32.31311 | -86.49703 | 34052 ft | 553 kts | 51° |
| 2026-05-07 00:34 | 32.33534 | -86.45990 | 33797 ft | 553 kts | 51° |
| 2026-05-07 00:34 | 32.35762 | -86.42249 | 33628 ft | 554 kts | 51° |
| 2026-05-07 00:34 | 32.37981 | -86.38526 | 33373 ft | 555 kts | 52° |
| 2026-05-07 00:35 | 32.40189 | -86.34770 | 33149 ft | 556 kts | 51° |
| 2026-05-07 00:35 | 32.42420 | -86.31024 | 32899 ft | 557 kts | 51° |
| 2026-05-07 00:35 | 32.44657 | -86.27289 | 32649 ft | 556 kts | 51° |
| 2026-05-07 00:35 | 32.46882 | -86.23541 | 32373 ft | 558 kts | 51° |
| 2026-05-07 00:36 | 32.49132 | -86.19785 | 32170 ft | 557 kts | 51° |
| 2026-05-07 00:36 | 32.51379 | -86.16032 | 31984 ft | 559 kts | 51° |
| 2026-05-07 00:36 | 32.53610 | -86.12263 | 31756 ft | 559 kts | 50° |
| 2026-05-07 00:36 | 32.55837 | -86.08495 | 31524 ft | 557 kts | 50° |
| 2026-05-07 00:37 | 32.58056 | -86.04738 | 31292 ft | 555 kts | 51° |
| 2026-05-07 00:37 | 32.60243 | -86.01027 | 31048 ft | 542 kts | 50° |
| 2026-05-07 00:37 | 32.62381 | -85.97399 | 30819 ft | 534 kts | 50° |
| 2026-05-07 00:37 | 32.64510 | -85.93792 | 30587 ft | 532 kts | 50° |
| 2026-05-07 00:38 | 32.66630 | -85.90200 | 30365 ft | 532 kts | 50° |
| 2026-05-07 00:38 | 32.68754 | -85.86597 | 30141 ft | 531 kts | 50° |
| 2026-05-07 00:38 | 32.70863 | -85.83012 | 29898 ft | 529 kts | 50° |
| 2026-05-07 00:38 | 32.72963 | -85.79438 | 29621 ft | 526 kts | 50° |
| 2026-05-07 00:39 | 32.75050 | -85.75879 | 29345 ft | 524 kts | 50° |
| 2026-05-07 00:39 | 32.77128 | -85.72333 | 29030 ft | 522 kts | 50° |
| 2026-05-07 00:39 | 32.79205 | -85.68790 | 28358 ft | 521 kts | 51° |
| 2026-05-07 00:39 | 32.81246 | -85.65307 | 27738 ft | 519 kts | 51° |
| 2026-05-07 00:40 | 32.83300 | -85.61797 | 27046 ft | 516 kts | 51° |
| 2026-05-07 00:40 | 32.85333 | -85.58311 | 26466 ft | 510 kts | 51° |
| 2026-05-07 00:40 | 32.87348 | -85.54858 | 25809 ft | 506 kts | 51° |
| 2026-05-07 00:40 | 32.89339 | -85.51441 | 25187 ft | 501 kts | 51° |
| 2026-05-07 00:41 | 32.91316 | -85.48045 | 24586 ft | 496 kts | 51° |
| 2026-05-07 00:41 | 32.93277 | -85.44677 | 23981 ft | 492 kts | 51° |
| 2026-05-07 00:41 | 32.95217 | -85.41338 | 23304 ft | 488 kts | 51° |
| 2026-05-07 00:41 | 32.97137 | -85.38035 | 22702 ft | 481 kts | 51° |
| 2026-05-07 00:42 | 32.99026 | -85.34781 | 22098 ft | 474 kts | 51° |
| 2026-05-07 00:42 | 33.00888 | -85.31569 | 21497 ft | 468 kts | 51° |
| 2026-05-07 00:42 | 33.02719 | -85.28408 | 21062 ft | 457 kts | 51° |
| 2026-05-07 00:42 | 33.04485 | -85.25352 | 20855 ft | 442 kts | 51° |
| 2026-05-07 00:43 | 33.06249 | -85.22313 | 20775 ft | 450 kts | 51° |
| 2026-05-07 00:43 | 33.08046 | -85.19217 | 20768 ft | 456 kts | 51° |
| 2026-05-07 00:43 | 33.09794 | -85.16179 | 20585 ft | 434 kts | 51° |
| 2026-05-07 00:43 | 33.11443 | -85.13299 | 20324 ft | 408 kts | 51° |
| 2026-05-07 00:44 | 33.12991 | -85.10597 | 20084 ft | 384 kts | 50° |
| 2026-05-07 00:44 | 33.14479 | -85.08007 | 19576 ft | 372 kts | 50° |
| 2026-05-07 00:44 | 33.15940 | -85.05484 | 18914 ft | 369 kts | 50° |
| 2026-05-07 00:44 | 33.17393 | -85.02977 | 18505 ft | 363 kts | 50° |
| 2026-05-07 00:45 | 33.18947 | -85.00650 | 17945 ft | 354 kts | 41° |
| 2026-05-07 00:45 | 33.20619 | -84.98504 | 17330 ft | 352 kts | 42° |
| 2026-05-07 00:45 | 33.22279 | -84.96372 | 16736 ft | 349 kts | 42° |
| 2026-05-07 00:45 | 33.23926 | -84.94246 | 16180 ft | 346 kts | 43° |
| 2026-05-07 00:46 | 33.25550 | -84.92142 | 15603 ft | 344 kts | 43° |
| 2026-05-07 00:46 | 33.27163 | -84.90042 | 15034 ft | 341 kts | 44° |
| 2026-05-07 00:46 | 33.28759 | -84.87962 | 14469 ft | 339 kts | 44° |
| 2026-05-07 00:46 | 33.30349 | -84.85891 | 13914 ft | 336 kts | 45° |
| 2026-05-07 00:47 | 33.31921 | -84.83839 | 13310 ft | 333 kts | 44° |
| 2026-05-07 00:47 | 33.33559 | -84.81907 | 12686 ft | 329 kts | 41° |
| 2026-05-07 00:47 | 33.35198 | -84.80015 | 12090 ft | 326 kts | 41° |
| 2026-05-07 00:47 | 33.36807 | -84.78155 | 11890 ft | 321 kts | 41° |
| 2026-05-07 00:48 | 33.38427 | -84.76275 | 12028 ft | 327 kts | 41° |
| 2026-05-07 00:48 | 33.40061 | -84.74372 | 12014 ft | 327 kts | 41° |
| 2026-05-07 00:48 | 33.41686 | -84.72486 | 12011 ft | 329 kts | 41° |
| 2026-05-07 00:48 | 33.43334 | -84.70563 | 12006 ft | 326 kts | 41° |
| 2026-05-07 00:49 | 33.44940 | -84.68689 | 11988 ft | 325 kts | 41° |
| 2026-05-07 00:49 | 33.46526 | -84.66831 | 11890 ft | 312 kts | 41° |
| 2026-05-07 00:49 | 33.48036 | -84.65064 | 11689 ft | 294 kts | 41° |
| 2026-05-07 00:49 | 33.49478 | -84.63377 | 11319 ft | 286 kts | 41° |
| 2026-05-07 00:50 | 33.50898 | -84.61716 | 11278 ft | 289 kts | 41° |
| 2026-05-07 00:50 | 33.52341 | -84.60035 | 11271 ft | 289 kts | 41° |
| 2026-05-07 00:50 | 33.53555 | -84.58127 | 11254 ft | 291 kts | 65° |
| 2026-05-07 00:50 | 33.54056 | -84.55797 | 11257 ft | 288 kts | 89° |
| 2026-05-07 00:51 | 33.54042 | -84.53413 | 11153 ft | 286 kts | 98° |
| 2026-05-07 00:51 | 33.53892 | -84.51038 | 10796 ft | 286 kts | 98° |
| 2026-05-07 00:51 | 33.53768 | -84.48689 | 10422 ft | 280 kts | 96° |
| 2026-05-07 00:51 | 33.53695 | -84.46366 | 10053 ft | 280 kts | 95° |
| 2026-05-07 00:52 | 33.53663 | -84.44030 | 9640 ft | 279 kts | 94° |
| 2026-05-07 00:52 | 33.53655 | -84.42494 | 9345 ft | 277 kts | 94° |
| 2026-05-07 00:52 | 33.53653 | -84.40201 | 8897 ft | 274 kts | 93° |
| 2026-05-07 00:52 | 33.53660 | -84.37925 | 8455 ft | 272 kts | 93° |
| 2026-05-07 00:53 | 33.53666 | -84.35676 | 8042 ft | 269 kts | 93° |
| 2026-05-07 00:53 | 33.53670 | -84.33431 | 7559 ft | 269 kts | 93° |
| 2026-05-07 00:53 | 33.53675 | -84.31200 | 7089 ft | 268 kts | 93° |
| 2026-05-07 00:53 | 33.53678 | -84.28952 | 6920 ft | 275 kts | 94° |
| 2026-05-07 00:54 | 33.53672 | -84.26737 | 6934 ft | 257 kts | 93° |
| 2026-05-07 00:54 | 33.53677 | -84.24567 | 6901 ft | 271 kts | 93° |
| 2026-05-07 00:54 | 33.53680 | -84.22222 | 6672 ft | 286 kts | 93° |
| 2026-05-07 00:54 | 33.53688 | -84.19868 | 6399 ft | 276 kts | 92° |
| 2026-05-07 00:55 | 33.53712 | -84.17628 | 6243 ft | 261 kts | 92° |
| 2026-05-07 00:55 | 33.54025 | -84.15523 | 6065 ft | 267 kts | 67° |
| 2026-05-07 00:55 | 33.55126 | -84.13637 | 5843 ft | 278 kts | 41° |
| 2026-05-07 00:55 | 33.56750 | -84.12468 | 5297 ft | 273 kts | 14° |
| 2026-05-07 00:56 | 33.58606 | -84.12221 | 4702 ft | 268 kts | 353° |
| 2026-05-07 00:56 | 33.60405 | -84.12687 | 4067 ft | 262 kts | 329° |
| 2026-05-07 00:56 | 33.61789 | -84.14012 | 3450 ft | 251 kts | 300° |
| 2026-05-07 00:56 | 33.62669 | -84.15749 | 3191 ft | 234 kts | 293° |
| 2026-05-07 00:57 | 33.63438 | -84.17297 | 3535 ft | 197 kts | 292° |
| 2026-05-07 00:57 | 33.63940 | -84.18746 | 3528 ft | 186 kts | 271° |
| 2026-05-07 00:57 | 33.63936 | -84.20282 | 3206 ft | 184 kts | 258° |
| 2026-05-07 00:57 | 33.63748 | -84.21825 | 2953 ft | 188 kts | 255° |
| 2026-05-07 00:58 | 33.63581 | -84.23407 | 2464 ft | 199 kts | 258° |
| 2026-05-07 00:58 | 33.63312 | -84.24977 | 2411 ft | 181 kts | 256° |
| 2026-05-07 00:58 | 33.63195 | -84.26323 | 2741 ft | 140 kts | 263° |
| 2026-05-07 00:58 | 33.63196 | -84.27442 | 3052 ft | 142 kts | 262° |
| 2026-05-07 00:59 | 33.63188 | -84.29791 | 2866 ft | 138 kts | 262° |
| 2026-05-07 00:59 | 33.63177 | -84.30944 | 2724 ft | 138 kts | 262° |
| 2026-05-07 00:59 | 33.63178 | -84.32106 | 2546 ft | 136 kts | 262° |
| 2026-05-07 01:00 | 33.63186 | -84.33194 | 2389 ft | 135 kts | 264° |
| 2026-05-07 01:00 | 33.63190 | -84.34315 | 2215 ft | 130 kts | 263° |
| 2026-05-07 01:00 | 33.63174 | -84.35417 | 2051 ft | 138 kts | 263° |
| 2026-05-07 01:00 | 33.63184 | -84.36576 | 1862 ft | 136 kts | 262° |
| 2026-05-07 01:01 | 33.63163 | -84.37740 | 1714 ft | 140 kts | 262° |
| 2026-05-07 01:01 | 33.63175 | -84.38918 | 1520 ft | 145 kts | 268° |
| 2026-05-07 01:01 | 33.63182 | -84.40127 | 1387 ft | 145 kts | 268° |
| 2026-05-07 01:01 | 33.63187 | -84.41335 | 1202 ft | 141 kts | 266° |
| 2026-05-07 01:02 | 33.63180 | -84.42454 | 1040 ft | 125 kts | 268° |
| 2026-05-07 01:02 | 33.63180 | -84.43139 | 1044 ft | 58 kts | 270° |
| 2026-05-07 01:02 | 33.63199 | -84.43507 | 1042 ft | 37 kts | 275° |
| 2026-05-07 01:02 | 33.63258 | -84.43698 | 1042 ft | 13 kts | 300° |
| 2026-05-07 01:03 | 33.63330 | -84.43727 | 1041 ft | 11 kts | 26° |
| 2026-05-07 01:03 | 33.63364 | -84.43647 | 1041 ft | 12 kts | 66° |
| 2026-05-07 01:03 | 33.63396 | -84.43622 | 1041 ft | 1 kts | 30° |
| 2026-05-07 01:03 | 33.63474 | -84.43609 | 1040 ft | 17 kts | 1° |
| 2026-05-07 01:04 | 33.63555 | -84.43602 | 1041 ft | 9 kts | 17° |
| 2026-05-07 01:04 | 33.63582 | -84.43508 | 1041 ft | 17 kts | 89° |
| 2026-05-07 01:04 | 33.63581 | -84.43355 | 1040 ft | 19 kts | 90° |
| 2026-05-07 01:04 | 33.63582 | -84.43194 | 1041 ft | 20 kts | 89° |
| 2026-05-07 01:05 | 33.63582 | -84.43025 | 1041 ft | 21 kts | 90° |
| 2026-05-07 01:05 | 33.63583 | -84.42855 | 1041 ft | 18 kts | 86° |
| 2026-05-07 01:05 | 33.63661 | -84.42757 | 1041 ft | 17 kts | 26° |
| 2026-05-07 01:05 | 33.63783 | -84.42735 | 1041 ft | 19 kts | 359° |
| 2026-05-07 01:06 | 33.63895 | -84.42735 | 1041 ft | 13 kts | 3° |
| 2026-05-07 01:06 | 33.63939 | -84.42671 | 1041 ft | 8 kts | 75° |
| 2026-05-07 01:06 | 33.63942 | -84.42631 | 1041 ft | 0 kts | 86° |